sensor_id;sensor_type;location;lat;lon;timestamp;P1;durP1;ratioP1;P2;durP2;ratioP2
52642;SDS011;38531;53.296;6.614;2024-01-30T00:01:41;24.45;;;16.25;;
52642;SDS011;38531;53.296;6.614;2024-01-30T00:04:06;24.20;;;16.48;;
52642;SDS011;38531;53.296;6.614;2024-01-30T00:06:32;23.98;;;16.85;;
52642;SDS011;38531;53.296;6.614;2024-01-30T00:08:58;22.33;;;15.32;;
52642;SDS011;38531;53.296;6.614;2024-01-30T00:11:23;26.38;;;17.70;;
52642;SDS011;38531;53.296;6.614;2024-01-30T00:13:51;21.77;;;15.93;;
52642;SDS011;38531;53.296;6.614;2024-01-30T00:16:23;24.10;;;15.32;;
52642;SDS011;38531;53.296;6.614;2024-01-30T00:18:53;21.42;;;14.98;;
52642;SDS011;38531;53.296;6.614;2024-01-30T00:21:19;20.83;;;14.32;;
52642;SDS011;38531;53.296;6.614;2024-01-30T00:23:45;21.42;;;15.73;;
52642;SDS011;38531;53.296;6.614;2024-01-30T00:26:11;23.30;;;15.35;;
52642;SDS011;38531;53.296;6.614;2024-01-30T00:28:38;23.98;;;16.25;;
52642;SDS011;38531;53.296;6.614;2024-01-30T00:31:04;28.00;;;16.38;;
52642;SDS011;38531;53.296;6.614;2024-01-30T00:33:29;24.70;;;16.23;;
52642;SDS011;38531;53.296;6.614;2024-01-30T00:35:55;26.30;;;16.58;;
52642;SDS011;38531;53.296;6.614;2024-01-30T00:38:21;23.83;;;15.93;;
52642;SDS011;38531;53.296;6.614;2024-01-30T00:40:47;26.40;;;16.45;;
52642;SDS011;38531;53.296;6.614;2024-01-30T00:43:13;28.20;;;16.52;;
52642;SDS011;38531;53.296;6.614;2024-01-30T00:45:39;23.05;;;15.15;;
52642;SDS011;38531;53.296;6.614;2024-01-30T00:48:05;21.52;;;14.10;;
52642;SDS011;38531;53.296;6.614;2024-01-30T00:50:31;24.13;;;16.08;;
52642;SDS011;38531;53.296;6.614;2024-01-30T00:52:56;21.38;;;15.48;;
52642;SDS011;38531;53.296;6.614;2024-01-30T00:55:22;24.42;;;16.02;;
52642;SDS011;38531;53.296;6.614;2024-01-30T00:57:48;25.02;;;16.85;;
52642;SDS011;38531;53.296;6.614;2024-01-30T01:00:13;29.17;;;16.35;;
52642;SDS011;38531;53.296;6.614;2024-01-30T01:02:42;30.17;;;17.33;;
52642;SDS011;38531;53.296;6.614;2024-01-30T01:05:08;25.38;;;16.65;;
52642;SDS011;38531;53.296;6.614;2024-01-30T01:07:34;22.83;;;15.55;;
52642;SDS011;38531;53.296;6.614;2024-01-30T01:10:00;26.45;;;16.60;;
52642;SDS011;38531;53.296;6.614;2024-01-30T01:12:26;26.20;;;17.13;;
52642;SDS011;38531;53.296;6.614;2024-01-30T01:14:51;22.85;;;15.73;;
52642;SDS011;38531;53.296;6.614;2024-01-30T01:17:17;28.05;;;17.95;;
52642;SDS011;38531;53.296;6.614;2024-01-30T01:19:43;25.23;;;16.38;;
52642;SDS011;38531;53.296;6.614;2024-01-30T01:22:09;28.25;;;17.90;;
52642;SDS011;38531;53.296;6.614;2024-01-30T01:24:35;31.75;;;18.05;;
52642;SDS011;38531;53.296;6.614;2024-01-30T01:27:01;29.08;;;17.90;;
52642;SDS011;38531;53.296;6.614;2024-01-30T01:29:27;24.88;;;17.15;;
52642;SDS011;38531;53.296;6.614;2024-01-30T01:31:57;29.05;;;18.17;;
52642;SDS011;38531;53.296;6.614;2024-01-30T01:34:23;23.38;;;16.63;;
52642;SDS011;38531;53.296;6.614;2024-01-30T01:36:49;24.73;;;16.15;;
52642;SDS011;38531;53.296;6.614;2024-01-30T01:39:15;24.65;;;14.85;;
52642;SDS011;38531;53.296;6.614;2024-01-30T01:41:41;23.65;;;15.52;;
52642;SDS011;38531;53.296;6.614;2024-01-30T01:44:07;26.80;;;17.00;;
52642;SDS011;38531;53.296;6.614;2024-01-30T01:46:34;21.10;;;14.88;;
52642;SDS011;38531;53.296;6.614;2024-01-30T01:49:00;25.05;;;16.05;;
52642;SDS011;38531;53.296;6.614;2024-01-30T01:51:30;24.45;;;15.23;;
52642;SDS011;38531;53.296;6.614;2024-01-30T01:53:58;19.35;;;14.88;;
52642;SDS011;38531;53.296;6.614;2024-01-30T01:56:27;22.70;;;15.15;;
52642;SDS011;38531;53.296;6.614;2024-01-30T01:58:54;24.33;;;15.85;;
52642;SDS011;38531;53.296;6.614;2024-01-30T02:01:20;24.40;;;16.92;;
52642;SDS011;38531;53.296;6.614;2024-01-30T02:03:46;27.80;;;17.17;;
52642;SDS011;38531;53.296;6.614;2024-01-30T02:06:15;27.08;;;17.73;;
52642;SDS011;38531;53.296;6.614;2024-01-30T02:08:41;26.90;;;17.95;;
52642;SDS011;38531;53.296;6.614;2024-01-30T02:11:07;25.77;;;16.55;;
52642;SDS011;38531;53.296;6.614;2024-01-30T02:13:33;25.23;;;17.10;;
52642;SDS011;38531;53.296;6.614;2024-01-30T02:15:59;27.23;;;16.73;;
52642;SDS011;38531;53.296;6.614;2024-01-30T02:18:26;27.08;;;17.48;;
52642;SDS011;38531;53.296;6.614;2024-01-30T02:20:53;26.13;;;17.52;;
52642;SDS011;38531;53.296;6.614;2024-01-30T02:23:21;29.42;;;17.67;;
52642;SDS011;38531;53.296;6.614;2024-01-30T02:25:49;28.10;;;18.40;;
52642;SDS011;38531;53.296;6.614;2024-01-30T02:28:15;27.63;;;17.27;;
52642;SDS011;38531;53.296;6.614;2024-01-30T02:30:42;34.22;;;19.70;;
52642;SDS011;38531;53.296;6.614;2024-01-30T02:33:08;26.35;;;18.17;;
52642;SDS011;38531;53.296;6.614;2024-01-30T02:35:34;30.45;;;17.83;;
52642;SDS011;38531;53.296;6.614;2024-01-30T02:38:00;30.48;;;19.27;;
52642;SDS011;38531;53.296;6.614;2024-01-30T02:40:26;28.08;;;18.25;;
52642;SDS011;38531;53.296;6.614;2024-01-30T02:42:51;34.08;;;19.35;;
52642;SDS011;38531;53.296;6.614;2024-01-30T02:45:17;40.42;;;19.63;;
52642;SDS011;38531;53.296;6.614;2024-01-30T02:47:43;29.05;;;20.08;;
52642;SDS011;38531;53.296;6.614;2024-01-30T02:50:09;37.50;;;20.05;;
52642;SDS011;38531;53.296;6.614;2024-01-30T02:52:35;30.15;;;19.30;;
52642;SDS011;38531;53.296;6.614;2024-01-30T02:55:01;35.90;;;19.48;;
52642;SDS011;38531;53.296;6.614;2024-01-30T02:57:27;34.92;;;20.08;;
52642;SDS011;38531;53.296;6.614;2024-01-30T02:59:53;31.50;;;21.30;;
52642;SDS011;38531;53.296;6.614;2024-01-30T03:02:19;31.90;;;19.52;;
52642;SDS011;38531;53.296;6.614;2024-01-30T03:04:45;29.48;;;18.58;;
52642;SDS011;38531;53.296;6.614;2024-01-30T03:07:11;32.55;;;19.63;;
52642;SDS011;38531;53.296;6.614;2024-01-30T03:09:36;31.05;;;19.63;;
52642;SDS011;38531;53.296;6.614;2024-01-30T03:12:03;33.72;;;19.13;;
52642;SDS011;38531;53.296;6.614;2024-01-30T03:14:32;30.23;;;18.60;;
52642;SDS011;38531;53.296;6.614;2024-01-30T03:16:58;29.23;;;18.92;;
52642;SDS011;38531;53.296;6.614;2024-01-30T03:19:23;33.10;;;18.95;;
52642;SDS011;38531;53.296;6.614;2024-01-30T03:21:49;31.27;;;19.05;;
52642;SDS011;38531;53.296;6.614;2024-01-30T03:24:16;30.05;;;18.40;;
52642;SDS011;38531;53.296;6.614;2024-01-30T03:26:42;27.48;;;17.10;;
52642;SDS011;38531;53.296;6.614;2024-01-30T03:29:08;24.90;;;16.80;;
52642;SDS011;38531;53.296;6.614;2024-01-30T03:31:34;27.20;;;17.63;;
52642;SDS011;38531;53.296;6.614;2024-01-30T03:34:00;27.42;;;17.17;;
52642;SDS011;38531;53.296;6.614;2024-01-30T03:36:26;25.83;;;16.60;;
52642;SDS011;38531;53.296;6.614;2024-01-30T03:38:52;26.90;;;17.50;;
52642;SDS011;38531;53.296;6.614;2024-01-30T03:41:18;31.02;;;18.08;;
52642;SDS011;38531;53.296;6.614;2024-01-30T03:43:43;26.80;;;17.02;;
52642;SDS011;38531;53.296;6.614;2024-01-30T03:46:11;32.47;;;17.17;;
52642;SDS011;38531;53.296;6.614;2024-01-30T03:48:37;32.75;;;17.10;;
52642;SDS011;38531;53.296;6.614;2024-01-30T03:51:03;30.15;;;17.25;;
52642;SDS011;38531;53.296;6.614;2024-01-30T03:53:29;27.88;;;17.30;;
52642;SDS011;38531;53.296;6.614;2024-01-30T03:55:55;32.38;;;17.33;;
52642;SDS011;38531;53.296;6.614;2024-01-30T03:58:20;34.22;;;18.42;;
52642;SDS011;38531;53.296;6.614;2024-01-30T04:00:46;31.38;;;18.27;;
52642;SDS011;38531;53.296;6.614;2024-01-30T04:03:12;31.17;;;18.23;;
52642;SDS011;38531;53.296;6.614;2024-01-30T04:05:39;33.75;;;19.30;;
52642;SDS011;38531;53.296;6.614;2024-01-30T04:08:05;31.48;;;18.48;;
52642;SDS011;38531;53.296;6.614;2024-01-30T04:10:31;37.08;;;20.48;;
52642;SDS011;38531;53.296;6.614;2024-01-30T04:12:57;39.88;;;20.00;;
52642;SDS011;38531;53.296;6.614;2024-01-30T04:15:22;34.85;;;21.05;;
52642;SDS011;38531;53.296;6.614;2024-01-30T04:17:48;34.83;;;20.98;;
52642;SDS011;38531;53.296;6.614;2024-01-30T04:20:16;34.67;;;20.10;;
52642;SDS011;38531;53.296;6.614;2024-01-30T04:22:45;41.72;;;21.02;;
52642;SDS011;38531;53.296;6.614;2024-01-30T04:25:12;39.47;;;20.42;;
52642;SDS011;38531;53.296;6.614;2024-01-30T04:27:38;43.00;;;20.45;;
52642;SDS011;38531;53.296;6.614;2024-01-30T04:30:04;33.97;;;20.55;;
52642;SDS011;38531;53.296;6.614;2024-01-30T04:32:30;34.17;;;19.45;;
52642;SDS011;38531;53.296;6.614;2024-01-30T04:34:56;42.85;;;19.90;;
52642;SDS011;38531;53.296;6.614;2024-01-30T04:37:23;34.78;;;19.77;;
52642;SDS011;38531;53.296;6.614;2024-01-30T04:39:50;37.25;;;21.77;;
52642;SDS011;38531;53.296;6.614;2024-01-30T04:42:16;40.65;;;21.33;;
52642;SDS011;38531;53.296;6.614;2024-01-30T04:44:42;39.78;;;20.38;;
52642;SDS011;38531;53.296;6.614;2024-01-30T04:47:07;34.90;;;19.55;;
52642;SDS011;38531;53.296;6.614;2024-01-30T04:49:36;33.25;;;20.20;;
52642;SDS011;38531;53.296;6.614;2024-01-30T04:52:01;41.40;;;21.92;;
52642;SDS011;38531;53.296;6.614;2024-01-30T04:54:27;36.63;;;19.70;;
52642;SDS011;38531;53.296;6.614;2024-01-30T04:56:53;37.28;;;20.60;;
52642;SDS011;38531;53.296;6.614;2024-01-30T04:59:18;41.80;;;20.23;;
52642;SDS011;38531;53.296;6.614;2024-01-30T05:01:44;42.15;;;20.70;;
52642;SDS011;38531;53.296;6.614;2024-01-30T05:04:10;37.17;;;20.50;;
52642;SDS011;38531;53.296;6.614;2024-01-30T05:06:36;38.13;;;21.83;;
52642;SDS011;38531;53.296;6.614;2024-01-30T05:09:02;39.85;;;22.17;;
52642;SDS011;38531;53.296;6.614;2024-01-30T05:11:31;34.83;;;20.13;;
52642;SDS011;38531;53.296;6.614;2024-01-30T05:14:01;35.53;;;19.85;;
52642;SDS011;38531;53.296;6.614;2024-01-30T05:16:27;31.83;;;20.15;;
52642;SDS011;38531;53.296;6.614;2024-01-30T05:18:53;36.10;;;20.08;;
52642;SDS011;38531;53.296;6.614;2024-01-30T05:21:18;33.03;;;19.50;;
52642;SDS011;38531;53.296;6.614;2024-01-30T05:23:44;35.47;;;21.08;;
52642;SDS011;38531;53.296;6.614;2024-01-30T05:26:09;34.83;;;19.60;;
52642;SDS011;38531;53.296;6.614;2024-01-30T05:28:35;31.75;;;19.52;;
52642;SDS011;38531;53.296;6.614;2024-01-30T05:31:01;29.08;;;19.42;;
52642;SDS011;38531;53.296;6.614;2024-01-30T05:33:27;36.50;;;19.35;;
52642;SDS011;38531;53.296;6.614;2024-01-30T05:35:53;30.15;;;18.35;;
52642;SDS011;38531;53.296;6.614;2024-01-30T05:38:19;31.00;;;19.27;;
52642;SDS011;38531;53.296;6.614;2024-01-30T05:40:45;27.67;;;18.35;;
52642;SDS011;38531;53.296;6.614;2024-01-30T05:43:11;32.50;;;19.17;;
52642;SDS011;38531;53.296;6.614;2024-01-30T05:45:37;31.13;;;19.35;;
52642;SDS011;38531;53.296;6.614;2024-01-30T05:48:03;28.92;;;18.25;;
52642;SDS011;38531;53.296;6.614;2024-01-30T05:50:29;36.25;;;19.00;;
52642;SDS011;38531;53.296;6.614;2024-01-30T05:52:55;29.55;;;19.13;;
52642;SDS011;38531;53.296;6.614;2024-01-30T05:55:20;29.73;;;18.67;;
52642;SDS011;38531;53.296;6.614;2024-01-30T05:57:46;31.13;;;17.00;;
52642;SDS011;38531;53.296;6.614;2024-01-30T06:00:12;27.10;;;17.30;;
52642;SDS011;38531;53.296;6.614;2024-01-30T06:02:38;28.83;;;17.95;;
52642;SDS011;38531;53.296;6.614;2024-01-30T06:05:04;30.42;;;19.10;;
52642;SDS011;38531;53.296;6.614;2024-01-30T06:07:29;29.17;;;17.90;;
52642;SDS011;38531;53.296;6.614;2024-01-30T06:09:55;30.05;;;18.38;;
52642;SDS011;38531;53.296;6.614;2024-01-30T06:12:21;29.48;;;16.73;;
52642;SDS011;38531;53.296;6.614;2024-01-30T06:14:46;32.25;;;16.92;;
52642;SDS011;38531;53.296;6.614;2024-01-30T06:17:12;31.48;;;17.98;;
52642;SDS011;38531;53.296;6.614;2024-01-30T06:19:38;29.48;;;17.27;;
52642;SDS011;38531;53.296;6.614;2024-01-30T06:22:04;23.80;;;15.65;;
52642;SDS011;38531;53.296;6.614;2024-01-30T06:24:30;25.58;;;17.60;;
52642;SDS011;38531;53.296;6.614;2024-01-30T06:26:56;25.35;;;16.85;;
52642;SDS011;38531;53.296;6.614;2024-01-30T06:29:21;33.53;;;17.23;;
52642;SDS011;38531;53.296;6.614;2024-01-30T06:31:49;26.45;;;16.88;;
52642;SDS011;38531;53.296;6.614;2024-01-30T06:34:15;25.63;;;16.38;;
52642;SDS011;38531;53.296;6.614;2024-01-30T06:36:41;28.40;;;16.52;;
52642;SDS011;38531;53.296;6.614;2024-01-30T06:39:07;22.65;;;16.23;;
52642;SDS011;38531;53.296;6.614;2024-01-30T06:41:32;25.00;;;16.45;;
52642;SDS011;38531;53.296;6.614;2024-01-30T06:43:58;28.63;;;16.05;;
52642;SDS011;38531;53.296;6.614;2024-01-30T06:46:24;23.63;;;16.23;;
52642;SDS011;38531;53.296;6.614;2024-01-30T06:48:50;23.77;;;15.27;;
52642;SDS011;38531;53.296;6.614;2024-01-30T06:51:15;24.98;;;16.35;;
52642;SDS011;38531;53.296;6.614;2024-01-30T06:53:41;23.92;;;15.38;;
52642;SDS011;38531;53.296;6.614;2024-01-30T06:56:07;24.80;;;15.43;;
52642;SDS011;38531;53.296;6.614;2024-01-30T06:58:33;28.17;;;15.60;;
52642;SDS011;38531;53.296;6.614;2024-01-30T07:00:59;22.13;;;15.02;;
52642;SDS011;38531;53.296;6.614;2024-01-30T07:03:24;26.48;;;15.30;;
52642;SDS011;38531;53.296;6.614;2024-01-30T07:05:50;25.75;;;15.85;;
52642;SDS011;38531;53.296;6.614;2024-01-30T07:08:16;22.65;;;15.05;;
52642;SDS011;38531;53.296;6.614;2024-01-30T07:10:43;26.05;;;14.68;;
52642;SDS011;38531;53.296;6.614;2024-01-30T07:13:09;23.10;;;14.57;;
52642;SDS011;38531;53.296;6.614;2024-01-30T07:15:36;24.08;;;14.93;;
52642;SDS011;38531;53.296;6.614;2024-01-30T07:18:02;23.30;;;14.35;;
52642;SDS011;38531;53.296;6.614;2024-01-30T07:20:28;21.42;;;14.43;;
52642;SDS011;38531;53.296;6.614;2024-01-30T07:22:55;23.38;;;14.85;;
52642;SDS011;38531;53.296;6.614;2024-01-30T07:25:21;25.05;;;14.55;;
52642;SDS011;38531;53.296;6.614;2024-01-30T07:27:51;26.75;;;15.35;;
52642;SDS011;38531;53.296;6.614;2024-01-30T07:30:17;23.98;;;14.70;;
52642;SDS011;38531;53.296;6.614;2024-01-30T07:32:44;22.30;;;14.55;;
52642;SDS011;38531;53.296;6.614;2024-01-30T07:35:09;23.70;;;14.88;;
52642;SDS011;38531;53.296;6.614;2024-01-30T07:45:26;21.13;;;14.30;;
52642;SDS011;38531;53.296;6.614;2024-01-30T07:47:57;24.30;;;14.35;;
52642;SDS011;38531;53.296;6.614;2024-01-30T07:50:23;30.02;;;14.45;;
52642;SDS011;38531;53.296;6.614;2024-01-30T07:52:49;21.67;;;14.13;;
52642;SDS011;38531;53.296;6.614;2024-01-30T07:55:16;25.50;;;14.50;;
52642;SDS011;38531;53.296;6.614;2024-01-30T07:57:42;24.55;;;14.32;;
52642;SDS011;38531;53.296;6.614;2024-01-30T08:00:08;24.00;;;15.02;;
52642;SDS011;38531;53.296;6.614;2024-01-30T08:02:34;23.13;;;14.70;;
52642;SDS011;38531;53.296;6.614;2024-01-30T08:04:59;21.77;;;14.40;;
52642;SDS011;38531;53.296;6.614;2024-01-30T08:07:25;21.80;;;14.73;;
52642;SDS011;38531;53.296;6.614;2024-01-30T08:09:51;22.23;;;13.70;;
52642;SDS011;38531;53.296;6.614;2024-01-30T08:12:16;21.23;;;14.02;;
52642;SDS011;38531;53.296;6.614;2024-01-30T08:14:42;22.95;;;14.15;;
52642;SDS011;38531;53.296;6.614;2024-01-30T08:17:08;27.02;;;14.05;;
52642;SDS011;38531;53.296;6.614;2024-01-30T08:19:33;23.60;;;13.63;;
52642;SDS011;38531;53.296;6.614;2024-01-30T08:21:59;22.20;;;14.30;;
52642;SDS011;38531;53.296;6.614;2024-01-30T08:24:25;21.38;;;13.65;;
52642;SDS011;38531;53.296;6.614;2024-01-30T08:26:50;22.27;;;13.48;;
52642;SDS011;38531;53.296;6.614;2024-01-30T08:29:16;21.88;;;13.40;;
52642;SDS011;38531;53.296;6.614;2024-01-30T08:31:42;23.73;;;13.63;;
52642;SDS011;38531;53.296;6.614;2024-01-30T08:34:08;19.13;;;13.57;;
52642;SDS011;38531;53.296;6.614;2024-01-30T08:36:33;19.58;;;13.20;;
52642;SDS011;38531;53.296;6.614;2024-01-30T08:38:59;26.20;;;13.32;;
52642;SDS011;38531;53.296;6.614;2024-01-30T08:41:24;22.38;;;13.75;;
52642;SDS011;38531;53.296;6.614;2024-01-30T08:43:51;19.05;;;12.93;;
52642;SDS011;38531;53.296;6.614;2024-01-30T08:46:18;24.13;;;14.15;;
52642;SDS011;38531;53.296;6.614;2024-01-30T08:48:44;19.38;;;13.55;;
52642;SDS011;38531;53.296;6.614;2024-01-30T08:51:11;26.65;;;13.93;;
52642;SDS011;38531;53.296;6.614;2024-01-30T08:53:37;20.50;;;12.90;;
52642;SDS011;38531;53.296;6.614;2024-01-30T08:56:05;20.17;;;13.20;;
52642;SDS011;38531;53.296;6.614;2024-01-30T08:58:31;17.27;;;11.95;;
52642;SDS011;38531;53.296;6.614;2024-01-30T09:00:58;21.98;;;13.10;;
52642;SDS011;38531;53.296;6.614;2024-01-30T09:03:24;20.42;;;12.50;;
52642;SDS011;38531;53.296;6.614;2024-01-30T09:05:49;18.10;;;12.38;;
52642;SDS011;38531;53.296;6.614;2024-01-30T09:08:15;20.90;;;12.20;;
52642;SDS011;38531;53.296;6.614;2024-01-30T09:10:41;21.13;;;12.27;;
52642;SDS011;38531;53.296;6.614;2024-01-30T09:13:06;26.67;;;12.77;;
52642;SDS011;38531;53.296;6.614;2024-01-30T09:15:32;19.05;;;11.95;;
52642;SDS011;38531;53.296;6.614;2024-01-30T09:17:58;20.38;;;12.75;;
52642;SDS011;38531;53.296;6.614;2024-01-30T09:20:24;18.75;;;12.70;;
52642;SDS011;38531;53.296;6.614;2024-01-30T09:22:49;16.85;;;12.63;;
52642;SDS011;38531;53.296;6.614;2024-01-30T09:25:15;18.13;;;11.80;;
52642;SDS011;38531;53.296;6.614;2024-01-30T09:27:41;20.02;;;13.00;;
52642;SDS011;38531;53.296;6.614;2024-01-30T09:30:06;19.23;;;11.75;;
52642;SDS011;38531;53.296;6.614;2024-01-30T09:32:33;16.98;;;11.68;;
52642;SDS011;38531;53.296;6.614;2024-01-30T09:34:58;20.67;;;12.60;;
52642;SDS011;38531;53.296;6.614;2024-01-30T09:37:24;22.25;;;12.25;;
52642;SDS011;38531;53.296;6.614;2024-01-30T09:39:49;23.52;;;12.98;;
52642;SDS011;38531;53.296;6.614;2024-01-30T09:44:52;19.05;;;11.48;;
52642;SDS011;38531;53.296;6.614;2024-01-30T09:47:19;22.65;;;12.77;;
52642;SDS011;38531;53.296;6.614;2024-01-30T09:49:44;17.38;;;11.07;;
52642;SDS011;38531;53.296;6.614;2024-01-30T09:52:11;19.50;;;11.27;;
52642;SDS011;38531;53.296;6.614;2024-01-30T09:54:38;19.85;;;11.93;;
52642;SDS011;38531;53.296;6.614;2024-01-30T09:57:04;17.40;;;11.75;;
52642;SDS011;38531;53.296;6.614;2024-01-30T09:59:30;17.88;;;11.43;;
52642;SDS011;38531;53.296;6.614;2024-01-30T10:01:56;17.67;;;11.85;;
52642;SDS011;38531;53.296;6.614;2024-01-30T10:04:23;19.63;;;11.82;;
52642;SDS011;38531;53.296;6.614;2024-01-30T10:06:49;20.80;;;11.30;;
52642;SDS011;38531;53.296;6.614;2024-01-30T10:09:15;17.92;;;11.00;;
52642;SDS011;38531;53.296;6.614;2024-01-30T10:11:41;22.08;;;11.40;;
52642;SDS011;38531;53.296;6.614;2024-01-30T10:14:07;23.80;;;12.15;;
52642;SDS011;38531;53.296;6.614;2024-01-30T10:16:34;19.83;;;10.93;;
52642;SDS011;38531;53.296;6.614;2024-01-30T10:18:59;15.73;;;11.05;;
52642;SDS011;38531;53.296;6.614;2024-01-30T10:21:25;19.65;;;11.45;;
52642;SDS011;38531;53.296;6.614;2024-01-30T10:23:51;20.30;;;10.90;;
52642;SDS011;38531;53.296;6.614;2024-01-30T10:26:17;17.50;;;10.93;;
52642;SDS011;38531;53.296;6.614;2024-01-30T10:28:43;19.00;;;10.73;;
52642;SDS011;38531;53.296;6.614;2024-01-30T10:31:08;19.75;;;11.38;;
52642;SDS011;38531;53.296;6.614;2024-01-30T10:33:34;19.70;;;10.80;;
52642;SDS011;38531;53.296;6.614;2024-01-30T10:36:00;19.20;;;11.57;;
52642;SDS011;38531;53.296;6.614;2024-01-30T10:38:31;18.45;;;11.23;;
52642;SDS011;38531;53.296;6.614;2024-01-30T10:40:58;16.88;;;11.07;;
52642;SDS011;38531;53.296;6.614;2024-01-30T10:43:29;28.35;;;11.60;;
52642;SDS011;38531;53.296;6.614;2024-01-30T10:46:00;22.92;;;11.40;;
52642;SDS011;38531;53.296;6.614;2024-01-30T10:48:37;22.30;;;11.73;;
52642;SDS011;38531;53.296;6.614;2024-01-30T10:51:08;17.10;;;10.68;;
52642;SDS011;38531;53.296;6.614;2024-01-30T10:53:35;14.75;;;11.05;;
52642;SDS011;38531;53.296;6.614;2024-01-30T10:56:02;17.27;;;11.40;;
52642;SDS011;38531;53.296;6.614;2024-01-30T10:58:29;17.63;;;10.68;;
52642;SDS011;38531;53.296;6.614;2024-01-30T11:00:55;22.00;;;10.43;;
52642;SDS011;38531;53.296;6.614;2024-01-30T11:03:22;19.90;;;10.13;;
52642;SDS011;38531;53.296;6.614;2024-01-30T11:05:51;19.70;;;10.32;;
52642;SDS011;38531;53.296;6.614;2024-01-30T11:08:24;17.80;;;9.88;;
52642;SDS011;38531;53.296;6.614;2024-01-30T11:10:55;19.52;;;9.57;;
52642;SDS011;38531;53.296;6.614;2024-01-30T11:13:22;19.17;;;9.82;;
52642;SDS011;38531;53.296;6.614;2024-01-30T11:15:51;20.48;;;9.40;;
52642;SDS011;38531;53.296;6.614;2024-01-30T11:18:23;20.58;;;8.98;;
52642;SDS011;38531;53.296;6.614;2024-01-30T11:20:50;15.30;;;9.05;;
52642;SDS011;38531;53.296;6.614;2024-01-30T11:23:16;15.00;;;7.43;;
52642;SDS011;38531;53.296;6.614;2024-01-30T11:25:43;12.48;;;7.43;;
52642;SDS011;38531;53.296;6.614;2024-01-30T11:28:12;16.27;;;6.60;;
52642;SDS011;38531;53.296;6.614;2024-01-30T11:30:40;15.70;;;6.95;;
52642;SDS011;38531;53.296;6.614;2024-01-30T11:33:12;18.45;;;6.18;;
52642;SDS011;38531;53.296;6.614;2024-01-30T11:35:39;16.13;;;6.20;;
52642;SDS011;38531;53.296;6.614;2024-01-30T11:38:10;13.15;;;6.22;;
52642;SDS011;38531;53.296;6.614;2024-01-30T11:40:37;13.13;;;6.20;;
52642;SDS011;38531;53.296;6.614;2024-01-30T11:43:04;16.85;;;6.38;;
52642;SDS011;38531;53.296;6.614;2024-01-30T11:45:31;12.85;;;5.38;;
52642;SDS011;38531;53.296;6.614;2024-01-30T11:47:58;16.02;;;5.20;;
52642;SDS011;38531;53.296;6.614;2024-01-30T11:50:32;11.70;;;4.53;;
52642;SDS011;38531;53.296;6.614;2024-01-30T11:52:59;12.05;;;4.13;;
52642;SDS011;38531;53.296;6.614;2024-01-30T11:55:25;9.55;;;4.05;;
52642;SDS011;38531;53.296;6.614;2024-01-30T11:57:51;11.18;;;4.20;;
52642;SDS011;38531;53.296;6.614;2024-01-30T12:00:20;11.88;;;3.90;;
52642;SDS011;38531;53.296;6.614;2024-01-30T12:02:52;15.63;;;3.30;;
52642;SDS011;38531;53.296;6.614;2024-01-30T12:05:25;10.43;;;3.35;;
52642;SDS011;38531;53.296;6.614;2024-01-30T12:07:52;8.45;;;2.40;;
52642;SDS011;38531;53.296;6.614;2024-01-30T12:10:18;8.20;;;1.90;;
52642;SDS011;38531;53.296;6.614;2024-01-30T12:12:45;6.80;;;1.95;;
52642;SDS011;38531;53.296;6.614;2024-01-30T12:15:13;11.38;;;2.20;;
52642;SDS011;38531;53.296;6.614;2024-01-30T12:17:39;4.13;;;1.50;;
52642;SDS011;38531;53.296;6.614;2024-01-30T12:20:06;3.95;;;1.00;;
52642;SDS011;38531;53.296;6.614;2024-01-30T12:22:46;3.10;;;1.17;;
52642;SDS011;38531;53.296;6.614;2024-01-30T12:25:16;5.47;;;1.08;;
52642;SDS011;38531;53.296;6.614;2024-01-30T12:27:44;3.75;;;0.85;;
52642;SDS011;38531;53.296;6.614;2024-01-30T12:30:11;4.85;;;1.17;;
52642;SDS011;38531;53.296;6.614;2024-01-30T12:32:39;4.05;;;1.10;;
52642;SDS011;38531;53.296;6.614;2024-01-30T12:35:14;1.48;;;1.00;;
52642;SDS011;38531;53.296;6.614;2024-01-30T12:37:41;4.15;;;1.00;;
52642;SDS011;38531;53.296;6.614;2024-01-30T12:40:09;3.88;;;1.00;;
52642;SDS011;38531;53.296;6.614;2024-01-30T12:42:36;1.05;;;0.60;;
52642;SDS011;38531;53.296;6.614;2024-01-30T12:45:03;2.67;;;0.57;;
52642;SDS011;38531;53.296;6.614;2024-01-30T12:47:29;1.38;;;0.40;;
52642;SDS011;38531;53.296;6.614;2024-01-30T12:49:56;5.10;;;0.57;;
52642;SDS011;38531;53.296;6.614;2024-01-30T12:52:22;2.42;;;0.60;;
52642;SDS011;38531;53.296;6.614;2024-01-30T12:54:48;1.48;;;0.55;;
52642;SDS011;38531;53.296;6.614;2024-01-30T12:57:14;4.75;;;0.60;;
52642;SDS011;38531;53.296;6.614;2024-01-30T12:59:41;2.33;;;0.50;;
52642;SDS011;38531;53.296;6.614;2024-01-30T13:02:07;3.45;;;0.70;;
52642;SDS011;38531;53.296;6.614;2024-01-30T13:04:33;2.97;;;0.50;;
52642;SDS011;38531;53.296;6.614;2024-01-30T13:06:59;2.50;;;0.65;;
52642;SDS011;38531;53.296;6.614;2024-01-30T13:09:25;2.40;;;0.60;;
52642;SDS011;38531;53.296;6.614;2024-01-30T13:11:51;3.63;;;0.60;;
52642;SDS011;38531;53.296;6.614;2024-01-30T13:14:17;3.72;;;0.47;;
52642;SDS011;38531;53.296;6.614;2024-01-30T13:16:44;3.00;;;0.50;;
52642;SDS011;38531;53.296;6.614;2024-01-30T13:19:10;1.98;;;0.40;;
52642;SDS011;38531;53.296;6.614;2024-01-30T13:21:35;2.42;;;0.40;;
52642;SDS011;38531;53.296;6.614;2024-01-30T13:24:01;2.05;;;0.50;;
52642;SDS011;38531;53.296;6.614;2024-01-30T13:26:27;0.82;;;0.40;;
52642;SDS011;38531;53.296;6.614;2024-01-30T13:28:53;3.05;;;0.60;;
52642;SDS011;38531;53.296;6.614;2024-01-30T13:31:19;1.58;;;0.50;;
52642;SDS011;38531;53.296;6.614;2024-01-30T13:33:45;1.02;;;0.45;;
52642;SDS011;38531;53.296;6.614;2024-01-30T13:36:11;1.75;;;0.60;;
52642;SDS011;38531;53.296;6.614;2024-01-30T13:38:37;1.48;;;0.52;;
52642;SDS011;38531;53.296;6.614;2024-01-30T13:41:04;1.15;;;0.60;;
52642;SDS011;38531;53.296;6.614;2024-01-30T13:43:30;1.85;;;0.57;;
52642;SDS011;38531;53.296;6.614;2024-01-30T13:45:56;2.83;;;0.50;;
52642;SDS011;38531;53.296;6.614;2024-01-30T13:48:21;3.22;;;0.60;;
52642;SDS011;38531;53.296;6.614;2024-01-30T13:50:47;3.95;;;0.43;;
52642;SDS011;38531;53.296;6.614;2024-01-30T13:53:13;0.93;;;0.50;;
52642;SDS011;38531;53.296;6.614;2024-01-30T13:55:39;4.03;;;0.90;;
52642;SDS011;38531;53.296;6.614;2024-01-30T13:58:05;3.05;;;0.70;;
52642;SDS011;38531;53.296;6.614;2024-01-30T14:00:31;2.38;;;0.60;;
52642;SDS011;38531;53.296;6.614;2024-01-30T14:02:58;2.72;;;0.50;;
52642;SDS011;38531;53.296;6.614;2024-01-30T14:05:25;5.45;;;0.80;;
52642;SDS011;38531;53.296;6.614;2024-01-30T14:07:52;2.35;;;0.60;;
52642;SDS011;38531;53.296;6.614;2024-01-30T14:10:18;3.10;;;0.60;;
52642;SDS011;38531;53.296;6.614;2024-01-30T14:12:44;3.42;;;0.52;;
52642;SDS011;38531;53.296;6.614;2024-01-30T14:15:11;3.10;;;0.70;;
52642;SDS011;38531;53.296;6.614;2024-01-30T14:17:37;4.18;;;0.52;;
52642;SDS011;38531;53.296;6.614;2024-01-30T14:20:03;1.50;;;0.50;;
52642;SDS011;38531;53.296;6.614;2024-01-30T14:22:30;2.22;;;0.60;;
52642;SDS011;38531;53.296;6.614;2024-01-30T14:24:56;2.55;;;0.45;;
52642;SDS011;38531;53.296;6.614;2024-01-30T14:27:22;2.53;;;0.45;;
52642;SDS011;38531;53.296;6.614;2024-01-30T14:29:48;3.63;;;0.60;;
52642;SDS011;38531;53.296;6.614;2024-01-30T14:32:13;1.30;;;0.40;;